Eastwood, New York
Current Conditions -  °F | °C
As of 4:25 AM on Thursday 18 Dec 2014 (Local Time) from KSYR Reporting Station
Light Snow Light Snow  
Wind Chill: 19°   Ceiling: 2200
Heat Index: 31°   Visibility: 9mi
Dew Point: 27°   Wind: 20mph
Humidity: 85%   Direction: 250°WSW
Pressure: 29.95"   Gusts: NA
Location:  43.0734°N, 76.106°W
Report Text: KSYR 180925Z 25017KT 9SM -SN FEW018 BKN022 OVC030 M01/M03 A2995 RMK AO2 P0000 T10061028 $
Loading
Personal Weather Stations






























Interactive Weather Map New forecast layout! Learn more

10-Day Weather Forecast

Advertisements
Track Severe Weather on mobile